sensor_id;sensor_type;location;lat;lon;timestamp;temperature;humidity
6379;DHT22;3222;48.858;10.128;2023-07-22T00:02:13;15.70;97.40
6379;DHT22;3222;48.858;10.128;2023-07-22T00:04:38;15.70;97.70
6379;DHT22;3222;48.858;10.128;2023-07-22T00:07:04;15.70;97.70
6379;DHT22;3222;48.858;10.128;2023-07-22T00:09:32;15.70;97.30
6379;DHT22;3222;48.858;10.128;2023-07-22T00:11:59;15.70;97.30
6379;DHT22;3222;48.858;10.128;2023-07-22T00:14:25;15.70;97.40
6379;DHT22;3222;48.858;10.128;2023-07-22T00:16:50;15.70;97.40
6379;DHT22;3222;48.858;10.128;2023-07-22T00:19:16;15.70;97.30
6379;DHT22;3222;48.858;10.128;2023-07-22T00:21:42;15.60;97.30
6379;DHT22;3222;48.858;10.128;2023-07-22T00:24:08;15.60;97.30
6379;DHT22;3222;48.858;10.128;2023-07-22T00:26:34;15.60;97.40
6379;DHT22;3222;48.858;10.128;2023-07-22T00:29:00;15.60;97.50
6379;DHT22;3222;48.858;10.128;2023-07-22T00:31:25;15.60;97.60
6379;DHT22;3222;48.858;10.128;2023-07-22T00:33:53;15.50;97.60
6379;DHT22;3222;48.858;10.128;2023-07-22T00:36:18;15.50;97.60
6379;DHT22;3222;48.858;10.128;2023-07-22T00:38:44;15.50;97.60
6379;DHT22;3222;48.858;10.128;2023-07-22T00:41:10;15.50;97.60
6379;DHT22;3222;48.858;10.128;2023-07-22T00:43:37;15.50;97.40
6379;DHT22;3222;48.858;10.128;2023-07-22T00:46:04;15.50;97.60
6379;DHT22;3222;48.858;10.128;2023-07-22T00:48:30;15.50;97.40
6379;DHT22;3222;48.858;10.128;2023-07-22T00:50:56;15.50;97.60
6379;DHT22;3222;48.858;10.128;2023-07-22T00:53:22;15.50;97.60
6379;DHT22;3222;48.858;10.128;2023-07-22T00:55:49;15.50;97.60
6379;DHT22;3222;48.858;10.128;2023-07-22T00:58:15;15.60;97.60
6379;DHT22;3222;48.858;10.128;2023-07-22T01:00:41;15.50;97.50
6379;DHT22;3222;48.858;10.128;2023-07-22T01:03:07;15.50;97.50
6379;DHT22;3222;48.858;10.128;2023-07-22T01:05:34;15.50;97.60
6379;DHT22;3222;48.858;10.128;2023-07-22T01:08:00;15.40;97.60
6379;DHT22;3222;48.858;10.128;2023-07-22T01:10:26;15.40;97.70
6379;DHT22;3222;48.858;10.128;2023-07-22T01:12:52;15.40;97.80
6379;DHT22;3222;48.858;10.128;2023-07-22T01:15:17;15.30;97.70
6379;DHT22;3222;48.858;10.128;2023-07-22T01:17:43;15.30;97.60
6379;DHT22;3222;48.858;10.128;2023-07-22T01:20:10;15.30;97.70
6379;DHT22;3222;48.858;10.128;2023-07-22T01:22:36;15.30;97.70
6379;DHT22;3222;48.858;10.128;2023-07-22T01:25:02;15.30;97.70
6379;DHT22;3222;48.858;10.128;2023-07-22T01:27:29;15.20;97.70
6379;DHT22;3222;48.858;10.128;2023-07-22T01:29:55;15.20;97.70
6379;DHT22;3222;48.858;10.128;2023-07-22T01:32:20;15.20;97.80
6379;DHT22;3222;48.858;10.128;2023-07-22T01:34:46;15.20;97.80
6379;DHT22;3222;48.858;10.128;2023-07-22T01:37:12;15.20;97.90
6379;DHT22;3222;48.858;10.128;2023-07-22T01:39:38;15.20;97.80
6379;DHT22;3222;48.858;10.128;2023-07-22T01:42:04;15.20;97.80
6379;DHT22;3222;48.858;10.128;2023-07-22T01:44:30;15.10;97.90
6379;DHT22;3222;48.858;10.128;2023-07-22T01:46:55;15.10;97.90
6379;DHT22;3222;48.858;10.128;2023-07-22T01:49:21;15.10;97.90
6379;DHT22;3222;48.858;10.128;2023-07-22T01:51:49;15.10;98.00
6379;DHT22;3222;48.858;10.128;2023-07-22T01:54:15;15.00;98.10
6379;DHT22;3222;48.858;10.128;2023-07-22T01:56:41;15.10;98.00
6379;DHT22;3222;48.858;10.128;2023-07-22T01:59:07;15.00;97.90
6379;DHT22;3222;48.858;10.128;2023-07-22T02:01:33;15.10;97.90
6379;DHT22;3222;48.858;10.128;2023-07-22T02:03:59;15.10;97.90
6379;DHT22;3222;48.858;10.128;2023-07-22T02:06:27;15.00;98.00
6379;DHT22;3222;48.858;10.128;2023-07-22T02:08:54;15.00;98.00
6379;DHT22;3222;48.858;10.128;2023-07-22T02:11:21;15.00;98.00
6379;DHT22;3222;48.858;10.128;2023-07-22T02:13:47;15.00;98.10
6379;DHT22;3222;48.858;10.128;2023-07-22T02:16:13;15.00;98.00
6379;DHT22;3222;48.858;10.128;2023-07-22T02:18:39;15.00;98.10
6379;DHT22;3222;48.858;10.128;2023-07-22T02:21:05;14.90;98.20
6379;DHT22;3222;48.858;10.128;2023-07-22T02:23:32;14.90;98.10
6379;DHT22;3222;48.858;10.128;2023-07-22T02:25:57;14.80;98.20
6379;DHT22;3222;48.858;10.128;2023-07-22T02:28:24;14.80;98.20
6379;DHT22;3222;48.858;10.128;2023-07-22T02:30:54;14.80;98.30
6379;DHT22;3222;48.858;10.128;2023-07-22T02:33:20;14.80;98.20
6379;DHT22;3222;48.858;10.128;2023-07-22T02:35:47;14.90;98.40
6379;DHT22;3222;48.858;10.128;2023-07-22T02:38:13;14.90;98.40
6379;DHT22;3222;48.858;10.128;2023-07-22T02:40:40;14.80;98.30
6379;DHT22;3222;48.858;10.128;2023-07-22T02:43:06;14.80;98.40
6379;DHT22;3222;48.858;10.128;2023-07-22T02:45:36;14.80;98.40
6379;DHT22;3222;48.858;10.128;2023-07-22T02:48:03;14.80;98.50
6379;DHT22;3222;48.858;10.128;2023-07-22T02:50:29;14.80;98.60
6379;DHT22;3222;48.858;10.128;2023-07-22T02:52:54;14.70;98.50
6379;DHT22;3222;48.858;10.128;2023-07-22T02:55:20;14.80;98.60
6379;DHT22;3222;48.858;10.128;2023-07-22T02:57:47;14.70;98.50
6379;DHT22;3222;48.858;10.128;2023-07-22T03:00:14;14.70;98.60
6379;DHT22;3222;48.858;10.128;2023-07-22T03:02:45;14.70;98.50
6379;DHT22;3222;48.858;10.128;2023-07-22T03:05:11;14.60;98.50
6379;DHT22;3222;48.858;10.128;2023-07-22T03:07:38;14.60;98.70
6379;DHT22;3222;48.858;10.128;2023-07-22T03:10:07;14.50;98.50
6379;DHT22;3222;48.858;10.128;2023-07-22T03:12:34;14.60;98.70
6379;DHT22;3222;48.858;10.128;2023-07-22T03:15:00;14.60;98.60
6379;DHT22;3222;48.858;10.128;2023-07-22T03:17:26;14.50;98.80
6379;DHT22;3222;48.858;10.128;2023-07-22T03:19:53;14.50;98.90
6379;DHT22;3222;48.858;10.128;2023-07-22T03:22:18;14.50;98.60
6379;DHT22;3222;48.858;10.128;2023-07-22T03:24:45;14.50;98.70
6379;DHT22;3222;48.858;10.128;2023-07-22T03:27:11;14.50;98.50
6379;DHT22;3222;48.858;10.128;2023-07-22T03:29:37;14.50;98.60
6379;DHT22;3222;48.858;10.128;2023-07-22T03:32:04;14.40;98.60
6379;DHT22;3222;48.858;10.128;2023-07-22T03:34:30;14.40;98.70
6379;DHT22;3222;48.858;10.128;2023-07-22T03:36:57;14.40;98.60
6379;DHT22;3222;48.858;10.128;2023-07-22T03:39:22;14.50;98.70
6379;DHT22;3222;48.858;10.128;2023-07-22T03:41:48;14.40;98.70
6379;DHT22;3222;48.858;10.128;2023-07-22T03:44:14;14.40;98.60
6379;DHT22;3222;48.858;10.128;2023-07-22T03:46:40;14.40;98.70
6379;DHT22;3222;48.858;10.128;2023-07-22T03:49:06;14.40;98.60
6379;DHT22;3222;48.858;10.128;2023-07-22T03:51:32;14.30;98.70
6379;DHT22;3222;48.858;10.128;2023-07-22T03:53:59;14.30;98.70
6379;DHT22;3222;48.858;10.128;2023-07-22T03:56:25;14.30;98.80
6379;DHT22;3222;48.858;10.128;2023-07-22T03:58:51;14.30;98.60
6379;DHT22;3222;48.858;10.128;2023-07-22T04:01:17;14.30;98.60
6379;DHT22;3222;48.858;10.128;2023-07-22T04:03:43;14.30;98.70
6379;DHT22;3222;48.858;10.128;2023-07-22T04:06:09;14.30;98.60
6379;DHT22;3222;48.858;10.128;2023-07-22T04:08:35;14.30;99.00
6379;DHT22;3222;48.858;10.128;2023-07-22T04:11:00;14.30;98.90
6379;DHT22;3222;48.858;10.128;2023-07-22T04:13:26;14.30;98.70
6379;DHT22;3222;48.858;10.128;2023-07-22T04:15:53;14.30;98.70
6379;DHT22;3222;48.858;10.128;2023-07-22T04:18:19;14.30;98.70
6379;DHT22;3222;48.858;10.128;2023-07-22T04:20:46;14.30;98.80
6379;DHT22;3222;48.858;10.128;2023-07-22T04:23:13;14.30;98.80
6379;DHT22;3222;48.858;10.128;2023-07-22T04:25:43;14.30;98.80
6379;DHT22;3222;48.858;10.128;2023-07-22T04:28:09;14.30;99.20
6379;DHT22;3222;48.858;10.128;2023-07-22T04:30:36;14.30;99.10
6379;DHT22;3222;48.858;10.128;2023-07-22T04:33:02;14.30;98.90
6379;DHT22;3222;48.858;10.128;2023-07-22T04:35:33;14.20;98.80
6379;DHT22;3222;48.858;10.128;2023-07-22T04:37:59;14.20;99.00
6379;DHT22;3222;48.858;10.128;2023-07-22T04:40:25;14.30;99.10
6379;DHT22;3222;48.858;10.128;2023-07-22T04:42:51;14.30;99.10
6379;DHT22;3222;48.858;10.128;2023-07-22T04:45:17;14.30;99.00
6379;DHT22;3222;48.858;10.128;2023-07-22T04:47:44;14.30;99.20
6379;DHT22;3222;48.858;10.128;2023-07-22T04:50:13;14.30;99.10
6379;DHT22;3222;48.858;10.128;2023-07-22T04:52:39;14.30;99.50
6379;DHT22;3222;48.858;10.128;2023-07-22T04:55:05;14.30;99.20
6379;DHT22;3222;48.858;10.128;2023-07-22T04:57:42;14.30;99.00
6379;DHT22;3222;48.858;10.128;2023-07-22T05:00:11;14.30;99.00
6379;DHT22;3222;48.858;10.128;2023-07-22T05:02:40;14.30;99.00
6379;DHT22;3222;48.858;10.128;2023-07-22T05:05:07;14.30;99.00
6379;DHT22;3222;48.858;10.128;2023-07-22T05:07:33;14.30;99.20
6379;DHT22;3222;48.858;10.128;2023-07-22T05:09:58;14.30;99.00
6379;DHT22;3222;48.858;10.128;2023-07-22T05:12:24;14.30;99.20
6379;DHT22;3222;48.858;10.128;2023-07-22T05:14:50;14.30;99.40
6379;DHT22;3222;48.858;10.128;2023-07-22T05:17:15;14.30;99.50
6379;DHT22;3222;48.858;10.128;2023-07-22T05:19:41;14.30;99.40
6379;DHT22;3222;48.858;10.128;2023-07-22T05:22:07;14.30;99.50
6379;DHT22;3222;48.858;10.128;2023-07-22T05:24:34;14.40;99.40
6379;DHT22;3222;48.858;10.128;2023-07-22T05:26:59;14.40;99.40
6379;DHT22;3222;48.858;10.128;2023-07-22T05:29:25;14.40;99.30
6379;DHT22;3222;48.858;10.128;2023-07-22T05:31:51;14.40;99.20
6379;DHT22;3222;48.858;10.128;2023-07-22T05:34:17;14.50;99.00
6379;DHT22;3222;48.858;10.128;2023-07-22T05:36:43;14.50;99.10
6379;DHT22;3222;48.858;10.128;2023-07-22T05:39:09;14.50;98.90
6379;DHT22;3222;48.858;10.128;2023-07-22T05:41:35;14.60;99.00
6379;DHT22;3222;48.858;10.128;2023-07-22T05:44:01;14.60;98.90
6379;DHT22;3222;48.858;10.128;2023-07-22T05:46:27;14.70;99.20
6379;DHT22;3222;48.858;10.128;2023-07-22T05:48:52;14.70;99.00
6379;DHT22;3222;48.858;10.128;2023-07-22T05:51:18;14.80;99.10
6379;DHT22;3222;48.858;10.128;2023-07-22T05:53:44;14.80;98.90
6379;DHT22;3222;48.858;10.128;2023-07-22T05:56:10;14.80;98.90
6379;DHT22;3222;48.858;10.128;2023-07-22T05:58:36;14.90;99.30
6379;DHT22;3222;48.858;10.128;2023-07-22T06:01:02;14.90;98.90
6379;DHT22;3222;48.858;10.128;2023-07-22T06:03:28;14.90;99.10
6379;DHT22;3222;48.858;10.128;2023-07-22T06:05:53;14.90;99.10
6379;DHT22;3222;48.858;10.128;2023-07-22T06:08:19;15.10;99.10
6379;DHT22;3222;48.858;10.128;2023-07-22T06:10:45;15.00;99.30
6379;DHT22;3222;48.858;10.128;2023-07-22T06:13:10;15.10;98.90
6379;DHT22;3222;48.858;10.128;2023-07-22T06:15:36;15.10;99.10
6379;DHT22;3222;48.858;10.128;2023-07-22T06:18:02;15.10;99.80
6379;DHT22;3222;48.858;10.128;2023-07-22T06:20:28;15.20;99.90
6379;DHT22;3222;48.858;10.128;2023-07-22T06:22:55;15.20;99.40
6379;DHT22;3222;48.858;10.128;2023-07-22T06:25:21;15.30;99.30
6379;DHT22;3222;48.858;10.128;2023-07-22T06:27:47;15.30;99.70
6379;DHT22;3222;48.858;10.128;2023-07-22T06:30:13;15.60;99.80
6379;DHT22;3222;48.858;10.128;2023-07-22T06:32:39;15.60;99.60
6379;DHT22;3222;48.858;10.128;2023-07-22T06:35:05;15.70;99.60
6379;DHT22;3222;48.858;10.128;2023-07-22T06:37:31;15.70;99.50
6379;DHT22;3222;48.858;10.128;2023-07-22T06:39:56;15.70;99.20
6379;DHT22;3222;48.858;10.128;2023-07-22T06:42:22;15.80;99.00
6379;DHT22;3222;48.858;10.128;2023-07-22T06:44:48;15.80;99.10
6379;DHT22;3222;48.858;10.128;2023-07-22T06:47:14;15.80;99.30
6379;DHT22;3222;48.858;10.128;2023-07-22T06:49:40;15.80;99.40
6379;DHT22;3222;48.858;10.128;2023-07-22T06:52:09;15.80;99.30
6379;DHT22;3222;48.858;10.128;2023-07-22T06:54:35;15.90;99.40
6379;DHT22;3222;48.858;10.128;2023-07-22T06:57:01;16.00;99.30
6379;DHT22;3222;48.858;10.128;2023-07-22T06:59:27;16.00;99.30
6379;DHT22;3222;48.858;10.128;2023-07-22T07:01:53;16.20;99.10
6379;DHT22;3222;48.858;10.128;2023-07-22T07:04:18;16.20;98.90
6379;DHT22;3222;48.858;10.128;2023-07-22T07:06:44;16.20;98.80
6379;DHT22;3222;48.858;10.128;2023-07-22T07:09:11;16.20;98.90
6379;DHT22;3222;48.858;10.128;2023-07-22T07:11:37;16.30;98.80
6379;DHT22;3222;48.858;10.128;2023-07-22T07:14:03;16.30;99.00
6379;DHT22;3222;48.858;10.128;2023-07-22T07:16:30;16.30;98.90
6379;DHT22;3222;48.858;10.128;2023-07-22T07:19:00;16.50;98.90
6379;DHT22;3222;48.858;10.128;2023-07-22T07:21:26;16.40;99.10
6379;DHT22;3222;48.858;10.128;2023-07-22T07:23:53;16.40;98.80
6379;DHT22;3222;48.858;10.128;2023-07-22T07:26:20;16.60;98.70
6379;DHT22;3222;48.858;10.128;2023-07-22T07:28:47;16.60;98.80
6379;DHT22;3222;48.858;10.128;2023-07-22T07:31:13;16.60;98.80
6379;DHT22;3222;48.858;10.128;2023-07-22T07:33:39;16.70;98.70
6379;DHT22;3222;48.858;10.128;2023-07-22T07:36:05;16.70;98.40
6379;DHT22;3222;48.858;10.128;2023-07-22T07:38:31;16.70;98.30
6379;DHT22;3222;48.858;10.128;2023-07-22T07:40:59;16.70;98.30
6379;DHT22;3222;48.858;10.128;2023-07-22T07:43:26;16.80;98.40
6379;DHT22;3222;48.858;10.128;2023-07-22T07:46:15;16.90;98.50
6379;DHT22;3222;48.858;10.128;2023-07-22T07:48:53;17.00;98.50
6379;DHT22;3222;48.858;10.128;2023-07-22T07:51:21;17.00;98.50
6379;DHT22;3222;48.858;10.128;2023-07-22T07:53:47;17.10;98.30
6379;DHT22;3222;48.858;10.128;2023-07-22T07:56:15;17.10;98.40
6379;DHT22;3222;48.858;10.128;2023-07-22T07:58:41;17.20;98.30
6379;DHT22;3222;48.858;10.128;2023-07-22T08:01:07;17.30;98.40
6379;DHT22;3222;48.858;10.128;2023-07-22T08:03:35;17.20;98.20
6379;DHT22;3222;48.858;10.128;2023-07-22T08:06:02;17.20;98.30
6379;DHT22;3222;48.858;10.128;2023-07-22T08:08:28;17.30;98.10
6379;DHT22;3222;48.858;10.128;2023-07-22T08:11:05;17.40;97.80
6379;DHT22;3222;48.858;10.128;2023-07-22T08:13:32;17.40;97.80
6379;DHT22;3222;48.858;10.128;2023-07-22T08:16:06;17.60;97.20
6379;DHT22;3222;48.858;10.128;2023-07-22T08:18:32;17.70;97.50
6379;DHT22;3222;48.858;10.128;2023-07-22T08:20:59;17.80;97.20
6379;DHT22;3222;48.858;10.128;2023-07-22T08:23:25;17.80;97.40
6379;DHT22;3222;48.858;10.128;2023-07-22T08:25:51;17.90;97.20
6379;DHT22;3222;48.858;10.128;2023-07-22T08:28:17;18.00;97.30
6379;DHT22;3222;48.858;10.128;2023-07-22T08:30:43;18.10;97.20
6379;DHT22;3222;48.858;10.128;2023-07-22T08:33:10;18.20;96.60
6379;DHT22;3222;48.858;10.128;2023-07-22T08:35:39;18.20;96.70
6379;DHT22;3222;48.858;10.128;2023-07-22T08:38:06;18.30;96.70
6379;DHT22;3222;48.858;10.128;2023-07-22T08:40:34;18.40;96.10
6379;DHT22;3222;48.858;10.128;2023-07-22T08:43:02;18.40;96.20
6379;DHT22;3222;48.858;10.128;2023-07-22T08:45:30;18.40;96.00
6379;DHT22;3222;48.858;10.128;2023-07-22T08:47:58;18.40;95.40
6379;DHT22;3222;48.858;10.128;2023-07-22T08:50:30;18.50;95.80
6379;DHT22;3222;48.858;10.128;2023-07-22T08:52:57;18.60;96.20
6379;DHT22;3222;48.858;10.128;2023-07-22T08:55:23;18.60;95.20
6379;DHT22;3222;48.858;10.128;2023-07-22T08:57:50;18.70;95.30
6379;DHT22;3222;48.858;10.128;2023-07-22T09:00:16;18.70;95.30
6379;DHT22;3222;48.858;10.128;2023-07-22T09:02:42;18.80;95.20
6379;DHT22;3222;48.858;10.128;2023-07-22T09:05:09;18.90;94.80
6379;DHT22;3222;48.858;10.128;2023-07-22T09:07:37;19.00;94.20
6379;DHT22;3222;48.858;10.128;2023-07-22T09:10:08;19.00;94.10
6379;DHT22;3222;48.858;10.128;2023-07-22T09:12:35;19.00;93.60
6379;DHT22;3222;48.858;10.128;2023-07-22T09:15:12;19.00;93.80
6379;DHT22;3222;48.858;10.128;2023-07-22T09:17:38;19.10;94.30
6379;DHT22;3222;48.858;10.128;2023-07-22T09:20:05;19.20;94.30
6379;DHT22;3222;48.858;10.128;2023-07-22T09:22:32;19.30;93.30
6379;DHT22;3222;48.858;10.128;2023-07-22T09:27:42;19.40;93.50
6379;DHT22;3222;48.858;10.128;2023-07-22T09:30:32;19.40;93.50
6379;DHT22;3222;48.858;10.128;2023-07-22T09:33:01;19.40;93.60
6379;DHT22;3222;48.858;10.128;2023-07-22T09:35:41;19.40;93.60
6379;DHT22;3222;48.858;10.128;2023-07-22T09:38:09;19.40;93.60
6379;DHT22;3222;48.858;10.128;2023-07-22T09:40:35;19.50;93.70
6379;DHT22;3222;48.858;10.128;2023-07-22T09:43:02;19.60;93.70
6379;DHT22;3222;48.858;10.128;2023-07-22T09:45:30;19.60;93.60
6379;DHT22;3222;48.858;10.128;2023-07-22T09:47:56;19.60;93.40
6379;DHT22;3222;48.858;10.128;2023-07-22T09:50:24;19.60;93.40
6379;DHT22;3222;48.858;10.128;2023-07-22T09:52:52;19.70;92.90
6379;DHT22;3222;48.858;10.128;2023-07-22T09:55:23;19.70;93.20
6379;DHT22;3222;48.858;10.128;2023-07-22T09:57:59;19.80;93.10
6379;DHT22;3222;48.858;10.128;2023-07-22T10:00:36;19.80;92.50
6379;DHT22;3222;48.858;10.128;2023-07-22T10:03:03;19.80;92.70
6379;DHT22;3222;48.858;10.128;2023-07-22T10:05:35;19.90;92.70
6379;DHT22;3222;48.858;10.128;2023-07-22T10:08:02;20.00;92.40
6379;DHT22;3222;48.858;10.128;2023-07-22T10:10:37;20.00;92.70
6379;DHT22;3222;48.858;10.128;2023-07-22T10:13:03;20.00;92.20
6379;DHT22;3222;48.858;10.128;2023-07-22T10:15:34;20.00;92.40
6379;DHT22;3222;48.858;10.128;2023-07-22T10:18:01;20.00;92.50
6379;DHT22;3222;48.858;10.128;2023-07-22T10:20:28;20.10;92.30
6379;DHT22;3222;48.858;10.128;2023-07-22T10:22:55;20.10;92.30
6379;DHT22;3222;48.858;10.128;2023-07-22T10:25:22;20.20;92.30
6379;DHT22;3222;48.858;10.128;2023-07-22T10:27:49;20.40;91.50
6379;DHT22;3222;48.858;10.128;2023-07-22T10:30:16;20.30;90.90
6379;DHT22;3222;48.858;10.128;2023-07-22T10:32:44;20.30;90.90
6379;DHT22;3222;48.858;10.128;2023-07-22T10:35:16;20.40;90.90
6379;DHT22;3222;48.858;10.128;2023-07-22T10:37:45;20.40;89.80
6379;DHT22;3222;48.858;10.128;2023-07-22T10:40:27;20.40;90.30
6379;DHT22;3222;48.858;10.128;2023-07-22T10:42:59;20.40;90.60
6379;DHT22;3222;48.858;10.128;2023-07-22T10:45:33;20.50;91.00
6379;DHT22;3222;48.858;10.128;2023-07-22T10:48:03;20.50;91.10
6379;DHT22;3222;48.858;10.128;2023-07-22T10:53:06;20.60;91.10
6379;DHT22;3222;48.858;10.128;2023-07-22T10:56:07;20.70;90.70
6379;DHT22;3222;48.858;10.128;2023-07-22T11:14:26;20.60;89.80
6379;DHT22;3222;48.858;10.128;2023-07-22T11:16:52;20.60;89.20
6379;DHT22;3222;48.858;10.128;2023-07-22T11:19:22;20.50;89.40
6379;DHT22;3222;48.858;10.128;2023-07-22T11:21:49;20.50;90.00
6379;DHT22;3222;48.858;10.128;2023-07-22T11:24:16;20.50;89.80
6379;DHT22;3222;48.858;10.128;2023-07-22T11:26:43;20.50;90.20
6379;DHT22;3222;48.858;10.128;2023-07-22T11:29:10;20.50;90.10
6379;DHT22;3222;48.858;10.128;2023-07-22T11:31:41;20.50;90.60
6379;DHT22;3222;48.858;10.128;2023-07-22T11:34:19;20.60;90.40
6379;DHT22;3222;48.858;10.128;2023-07-22T11:36:46;20.80;90.00
6379;DHT22;3222;48.858;10.128;2023-07-22T11:39:17;20.80;90.20
6379;DHT22;3222;48.858;10.128;2023-07-22T11:41:44;20.90;90.20
6379;DHT22;3222;48.858;10.128;2023-07-22T11:44:14;20.90;90.10
6379;DHT22;3222;48.858;10.128;2023-07-22T11:49:30;20.90;90.00
6379;DHT22;3222;48.858;10.128;2023-07-22T11:52:04;20.90;88.80
6379;DHT22;3222;48.858;10.128;2023-07-22T11:54:31;20.90;90.00
6379;DHT22;3222;48.858;10.128;2023-07-22T11:59:46;21.10;90.00
6379;DHT22;3222;48.858;10.128;2023-07-22T12:02:17;21.20;89.50
6379;DHT22;3222;48.858;10.128;2023-07-22T12:04:57;21.20;89.70
6379;DHT22;3222;48.858;10.128;2023-07-22T12:07:27;21.30;89.70
6379;DHT22;3222;48.858;10.128;2023-07-22T12:09:54;21.40;89.70
6379;DHT22;3222;48.858;10.128;2023-07-22T12:12:20;21.40;89.20
6379;DHT22;3222;48.858;10.128;2023-07-22T12:14:46;21.50;88.80
6379;DHT22;3222;48.858;10.128;2023-07-22T12:17:11;21.40;88.00
6379;DHT22;3222;48.858;10.128;2023-07-22T12:19:37;21.50;89.00
6379;DHT22;3222;48.858;10.128;2023-07-22T12:22:03;21.50;89.70
6379;DHT22;3222;48.858;10.128;2023-07-22T12:24:29;21.70;88.90
6379;DHT22;3222;48.858;10.128;2023-07-22T12:26:55;21.90;88.20
6379;DHT22;3222;48.858;10.128;2023-07-22T12:29:21;22.00;89.00
6379;DHT22;3222;48.858;10.128;2023-07-22T12:31:48;22.20;86.80
6379;DHT22;3222;48.858;10.128;2023-07-22T12:34:14;22.40;84.70
6379;DHT22;3222;48.858;10.128;2023-07-22T12:36:40;22.50;87.10
6379;DHT22;3222;48.858;10.128;2023-07-22T12:39:06;22.50;86.90
6379;DHT22;3222;48.858;10.128;2023-07-22T12:41:32;22.50;87.50
6379;DHT22;3222;48.858;10.128;2023-07-22T12:43:58;22.50;85.30
6379;DHT22;3222;48.858;10.128;2023-07-22T12:46:23;22.50;86.40
6379;DHT22;3222;48.858;10.128;2023-07-22T12:48:49;22.50;85.10
6379;DHT22;3222;48.858;10.128;2023-07-22T12:51:15;22.50;86.40
6379;DHT22;3222;48.858;10.128;2023-07-22T12:53:41;22.50;86.80
6379;DHT22;3222;48.858;10.128;2023-07-22T12:56:06;22.60;87.00
6379;DHT22;3222;48.858;10.128;2023-07-22T12:58:32;22.60;86.90
6379;DHT22;3222;48.858;10.128;2023-07-22T13:00:59;22.60;86.70
6379;DHT22;3222;48.858;10.128;2023-07-22T13:03:24;22.60;87.10
6379;DHT22;3222;48.858;10.128;2023-07-22T13:05:50;22.70;86.30
6379;DHT22;3222;48.858;10.128;2023-07-22T13:08:16;22.70;86.80
6379;DHT22;3222;48.858;10.128;2023-07-22T13:10:41;22.70;86.40
6379;DHT22;3222;48.858;10.128;2023-07-22T13:13:10;22.70;86.00
6379;DHT22;3222;48.858;10.128;2023-07-22T13:15:36;22.80;85.90
6379;DHT22;3222;48.858;10.128;2023-07-22T13:18:02;22.80;85.30
6379;DHT22;3222;48.858;10.128;2023-07-22T13:20:28;22.70;86.20
6379;DHT22;3222;48.858;10.128;2023-07-22T13:22:55;22.60;87.10
6379;DHT22;3222;48.858;10.128;2023-07-22T13:25:21;22.50;86.80
6379;DHT22;3222;48.858;10.128;2023-07-22T13:27:47;22.50;87.70
6379;DHT22;3222;48.858;10.128;2023-07-22T13:30:13;22.50;87.50
6379;DHT22;3222;48.858;10.128;2023-07-22T13:32:39;22.60;86.70
6379;DHT22;3222;48.858;10.128;2023-07-22T13:35:06;22.60;86.40
6379;DHT22;3222;48.858;10.128;2023-07-22T13:37:32;22.50;86.80
6379;DHT22;3222;48.858;10.128;2023-07-22T13:39:57;22.30;87.10
6379;DHT22;3222;48.858;10.128;2023-07-22T13:42:24;22.30;87.60
6379;DHT22;3222;48.858;10.128;2023-07-22T13:44:50;22.40;88.00
6379;DHT22;3222;48.858;10.128;2023-07-22T13:47:16;22.40;87.80
6379;DHT22;3222;48.858;10.128;2023-07-22T13:49:42;22.40;87.50
6379;DHT22;3222;48.858;10.128;2023-07-22T13:52:08;22.50;86.60
6379;DHT22;3222;48.858;10.128;2023-07-22T13:54:33;22.40;86.60
6379;DHT22;3222;48.858;10.128;2023-07-22T13:56:59;22.50;87.30
6379;DHT22;3222;48.858;10.128;2023-07-22T13:59:26;22.60;87.30
6379;DHT22;3222;48.858;10.128;2023-07-22T14:01:52;22.50;87.50
6379;DHT22;3222;48.858;10.128;2023-07-22T14:04:17;22.60;87.60
6379;DHT22;3222;48.858;10.128;2023-07-22T14:06:43;22.60;87.40
6379;DHT22;3222;48.858;10.128;2023-07-22T14:09:09;22.60;86.50
6379;DHT22;3222;48.858;10.128;2023-07-22T14:11:35;22.60;87.40
6379;DHT22;3222;48.858;10.128;2023-07-22T14:14:01;22.70;87.80
6379;DHT22;3222;48.858;10.128;2023-07-22T14:16:27;22.70;87.30
6379;DHT22;3222;48.858;10.128;2023-07-22T14:18:54;22.80;88.00
6379;DHT22;3222;48.858;10.128;2023-07-22T14:21:21;22.80;88.20
6379;DHT22;3222;48.858;10.128;2023-07-22T14:23:46;23.00;86.70
6379;DHT22;3222;48.858;10.128;2023-07-22T14:26:12;22.90;86.60
6379;DHT22;3222;48.858;10.128;2023-07-22T14:28:38;22.90;87.70
6379;DHT22;3222;48.858;10.128;2023-07-22T14:31:04;22.90;87.40
6379;DHT22;3222;48.858;10.128;2023-07-22T14:33:30;22.90;86.60
6379;DHT22;3222;48.858;10.128;2023-07-22T14:35:56;22.90;86.50
6379;DHT22;3222;48.858;10.128;2023-07-22T14:38:22;22.80;86.80
6379;DHT22;3222;48.858;10.128;2023-07-22T14:40:47;22.70;87.50
6379;DHT22;3222;48.858;10.128;2023-07-22T14:43:13;22.70;86.80
6379;DHT22;3222;48.858;10.128;2023-07-22T14:45:39;22.80;86.70
6379;DHT22;3222;48.858;10.128;2023-07-22T14:48:05;22.80;87.10
6379;DHT22;3222;48.858;10.128;2023-07-22T14:50:31;22.80;86.70
6379;DHT22;3222;48.858;10.128;2023-07-22T14:52:56;22.70;87.90
6379;DHT22;3222;48.858;10.128;2023-07-22T14:55:25;22.80;87.10
6379;DHT22;3222;48.858;10.128;2023-07-22T14:57:50;22.80;88.20
6379;DHT22;3222;48.858;10.128;2023-07-22T15:00:16;22.90;86.50
6379;DHT22;3222;48.858;10.128;2023-07-22T15:02:43;22.80;86.70
6379;DHT22;3222;48.858;10.128;2023-07-22T15:05:09;22.80;87.20
6379;DHT22;3222;48.858;10.128;2023-07-22T15:07:35;22.70;86.40
6379;DHT22;3222;48.858;10.128;2023-07-22T15:10:01;22.70;87.30
6379;DHT22;3222;48.858;10.128;2023-07-22T15:12:27;22.70;87.30
6379;DHT22;3222;48.858;10.128;2023-07-22T15:14:53;22.70;87.80
6379;DHT22;3222;48.858;10.128;2023-07-22T15:17:19;22.70;87.90
6379;DHT22;3222;48.858;10.128;2023-07-22T15:19:44;22.70;87.60
6379;DHT22;3222;48.858;10.128;2023-07-22T15:22:10;22.70;88.10
6379;DHT22;3222;48.858;10.128;2023-07-22T15:24:36;22.70;87.40
6379;DHT22;3222;48.858;10.128;2023-07-22T15:27:01;22.70;87.00
6379;DHT22;3222;48.858;10.128;2023-07-22T15:29:27;22.70;87.10
6379;DHT22;3222;48.858;10.128;2023-07-22T15:31:53;22.60;88.50
6379;DHT22;3222;48.858;10.128;2023-07-22T15:34:19;22.80;87.80
6379;DHT22;3222;48.858;10.128;2023-07-22T15:36:45;22.90;87.40
6379;DHT22;3222;48.858;10.128;2023-07-22T15:39:11;23.00;87.10
6379;DHT22;3222;48.858;10.128;2023-07-22T15:41:37;23.00;87.40
6379;DHT22;3222;48.858;10.128;2023-07-22T15:44:04;23.00;86.60
6379;DHT22;3222;48.858;10.128;2023-07-22T15:46:29;23.00;86.70
6379;DHT22;3222;48.858;10.128;2023-07-22T15:48:55;22.90;86.50
6379;DHT22;3222;48.858;10.128;2023-07-22T15:51:22;23.00;85.70
6379;DHT22;3222;48.858;10.128;2023-07-22T15:53:47;22.80;85.40
6379;DHT22;3222;48.858;10.128;2023-07-22T15:56:15;22.80;86.40
6379;DHT22;3222;48.858;10.128;2023-07-22T15:58:40;22.70;85.80
6379;DHT22;3222;48.858;10.128;2023-07-22T16:01:06;22.60;85.90
6379;DHT22;3222;48.858;10.128;2023-07-22T16:03:32;22.60;85.70
6379;DHT22;3222;48.858;10.128;2023-07-22T16:06:01;22.70;86.00
6379;DHT22;3222;48.858;10.128;2023-07-22T16:08:27;22.70;85.60
6379;DHT22;3222;48.858;10.128;2023-07-22T16:10:55;22.80;86.20